sensor_id;sensor_type;location;lat;lon;timestamp;P1;durP1;ratioP1;P2;durP2;ratioP2
11847;SDS011;5983;49.966;8.052;2022-11-04T00:01:32;1.13;;;0.90;;
11847;SDS011;5983;49.966;8.052;2022-11-04T00:04:04;6.23;;;1.40;;
11847;SDS011;5983;49.966;8.052;2022-11-04T00:06:33;1.27;;;1.00;;
11847;SDS011;5983;49.966;8.052;2022-11-04T00:09:01;2.00;;;1.03;;
11847;SDS011;5983;49.966;8.052;2022-11-04T00:11:30;2.07;;;1.07;;
11847;SDS011;5983;49.966;8.052;2022-11-04T00:14:15;1.80;;;1.20;;
11847;SDS011;5983;49.966;8.052;2022-11-04T00:16:42;1.03;;;0.93;;
11847;SDS011;5983;49.966;8.052;2022-11-04T00:19:27;2.80;;;0.87;;
11847;SDS011;5983;49.966;8.052;2022-11-04T00:22:16;1.13;;;1.00;;
11847;SDS011;5983;49.966;8.052;2022-11-04T00:25:00;1.40;;;1.00;;
11847;SDS011;5983;49.966;8.052;2022-11-04T00:27:45;1.80;;;0.80;;
11847;SDS011;5983;49.966;8.052;2022-11-04T00:30:30;2.10;;;0.97;;
11847;SDS011;5983;49.966;8.052;2022-11-04T00:32:57;2.70;;;1.37;;
11847;SDS011;5983;49.966;8.052;2022-11-04T00:35:46;3.43;;;1.00;;
11847;SDS011;5983;49.966;8.052;2022-11-04T00:38:15;0.97;;;0.90;;
11847;SDS011;5983;49.966;8.052;2022-11-04T00:40:42;4.33;;;1.30;;
11847;SDS011;5983;49.966;8.052;2022-11-04T00:43:10;1.17;;;0.90;;
11847;SDS011;5983;49.966;8.052;2022-11-04T00:45:37;1.37;;;0.70;;
11847;SDS011;5983;49.966;8.052;2022-11-04T00:48:06;2.60;;;0.60;;
11847;SDS011;5983;49.966;8.052;2022-11-04T00:50:34;0.87;;;0.60;;
11847;SDS011;5983;49.966;8.052;2022-11-04T00:53:02;1.17;;;0.80;;
11847;SDS011;5983;49.966;8.052;2022-11-04T00:55:30;2.63;;;1.03;;
11847;SDS011;5983;49.966;8.052;2022-11-04T00:57:57;2.13;;;0.80;;
11847;SDS011;5983;49.966;8.052;2022-11-04T01:00:25;0.83;;;0.70;;
11847;SDS011;5983;49.966;8.052;2022-11-04T01:02:52;3.97;;;0.70;;
11847;SDS011;5983;49.966;8.052;2022-11-04T01:05:19;0.83;;;0.73;;
11847;SDS011;5983;49.966;8.052;2022-11-04T01:07:46;1.47;;;1.00;;
11847;SDS011;5983;49.966;8.052;2022-11-04T01:10:13;0.93;;;0.80;;
11847;SDS011;5983;49.966;8.052;2022-11-04T01:12:41;1.07;;;0.80;;
11847;SDS011;5983;49.966;8.052;2022-11-04T01:15:09;6.63;;;0.80;;
11847;SDS011;5983;49.966;8.052;2022-11-04T01:17:36;0.70;;;0.50;;
11847;SDS011;5983;49.966;8.052;2022-11-04T01:20:03;1.60;;;0.80;;
11847;SDS011;5983;49.966;8.052;2022-11-04T01:22:30;1.70;;;0.90;;
11847;SDS011;5983;49.966;8.052;2022-11-04T01:24:57;0.87;;;0.60;;
11847;SDS011;5983;49.966;8.052;2022-11-04T01:27:24;1.90;;;0.77;;
11847;SDS011;5983;49.966;8.052;2022-11-04T01:29:53;0.90;;;0.70;;
11847;SDS011;5983;49.966;8.052;2022-11-04T01:32:19;2.70;;;0.77;;
11847;SDS011;5983;49.966;8.052;2022-11-04T01:34:46;0.80;;;0.80;;
11847;SDS011;5983;49.966;8.052;2022-11-04T01:37:13;1.63;;;0.87;;
11847;SDS011;5983;49.966;8.052;2022-11-04T01:39:40;0.60;;;0.50;;
11847;SDS011;5983;49.966;8.052;2022-11-04T01:42:09;1.30;;;0.80;;
11847;SDS011;5983;49.966;8.052;2022-11-04T01:47:28;1.20;;;0.73;;
11847;SDS011;5983;49.966;8.052;2022-11-04T01:50:04;0.70;;;0.70;;
11847;SDS011;5983;49.966;8.052;2022-11-04T01:52:36;0.50;;;0.50;;
11847;SDS011;5983;49.966;8.052;2022-11-04T01:55:14;1.73;;;0.60;;
11847;SDS011;5983;49.966;8.052;2022-11-04T01:57:46;2.60;;;0.90;;
11847;SDS011;5983;49.966;8.052;2022-11-04T02:00:18;0.50;;;0.50;;
11847;SDS011;5983;49.966;8.052;2022-11-04T02:02:49;0.60;;;0.50;;
11847;SDS011;5983;49.966;8.052;2022-11-04T02:05:22;0.70;;;0.50;;
11847;SDS011;5983;49.966;8.052;2022-11-04T02:07:49;0.87;;;0.57;;
11847;SDS011;5983;49.966;8.052;2022-11-04T02:10:22;0.57;;;0.50;;
11847;SDS011;5983;49.966;8.052;2022-11-04T02:12:53;1.33;;;0.80;;
11847;SDS011;5983;49.966;8.052;2022-11-04T02:15:25;0.87;;;0.40;;
11847;SDS011;5983;49.966;8.052;2022-11-04T02:18:15;0.80;;;0.50;;
11847;SDS011;5983;49.966;8.052;2022-11-04T02:24:13;1.23;;;0.40;;
11847;SDS011;5983;49.966;8.052;2022-11-04T02:27:29;0.83;;;0.53;;
11847;SDS011;5983;49.966;8.052;2022-11-04T02:30:13;0.67;;;0.43;;
11847;SDS011;5983;49.966;8.052;2022-11-04T02:32:55;1.57;;;0.60;;
11847;SDS011;5983;49.966;8.052;2022-11-04T02:35:41;0.60;;;0.50;;
11847;SDS011;5983;49.966;8.052;2022-11-04T02:38:21;0.60;;;0.40;;
11847;SDS011;5983;49.966;8.052;2022-11-04T02:40:59;0.30;;;0.30;;
11847;SDS011;5983;49.966;8.052;2022-11-04T02:43:40;0.97;;;0.50;;
11847;SDS011;5983;49.966;8.052;2022-11-04T02:46:18;0.57;;;0.40;;
11847;SDS011;5983;49.966;8.052;2022-11-04T02:48:53;0.50;;;0.50;;
11847;SDS011;5983;49.966;8.052;2022-11-04T02:51:28;0.50;;;0.30;;
11847;SDS011;5983;49.966;8.052;2022-11-04T02:54:03;0.50;;;0.40;;
11847;SDS011;5983;49.966;8.052;2022-11-04T02:56:37;0.63;;;0.40;;
11847;SDS011;5983;49.966;8.052;2022-11-04T02:59:11;1.13;;;0.60;;
11847;SDS011;5983;49.966;8.052;2022-11-04T03:01:47;0.43;;;0.40;;
11847;SDS011;5983;49.966;8.052;2022-11-04T03:04:19;2.53;;;0.50;;
11847;SDS011;5983;49.966;8.052;2022-11-04T03:06:52;0.70;;;0.60;;
11847;SDS011;5983;49.966;8.052;2022-11-04T03:09:22;1.87;;;0.40;;
11847;SDS011;5983;49.966;8.052;2022-11-04T03:11:54;1.43;;;0.50;;
11847;SDS011;5983;49.966;8.052;2022-11-04T03:14:28;1.27;;;0.50;;
11847;SDS011;5983;49.966;8.052;2022-11-04T03:17:03;3.27;;;0.40;;
11847;SDS011;5983;49.966;8.052;2022-11-04T03:19:40;0.47;;;0.40;;
11847;SDS011;5983;49.966;8.052;2022-11-04T03:22:18;3.17;;;0.60;;
11847;SDS011;5983;49.966;8.052;2022-11-04T03:24:48;0.80;;;0.47;;
11847;SDS011;5983;49.966;8.052;2022-11-04T03:27:19;2.43;;;0.57;;
11847;SDS011;5983;49.966;8.052;2022-11-04T03:29:55;0.60;;;0.40;;
11847;SDS011;5983;49.966;8.052;2022-11-04T03:32:31;0.80;;;0.57;;
11847;SDS011;5983;49.966;8.052;2022-11-04T03:35:06;0.90;;;0.50;;
11847;SDS011;5983;49.966;8.052;2022-11-04T03:37:34;2.63;;;0.63;;
11847;SDS011;5983;49.966;8.052;2022-11-04T03:40:01;2.57;;;0.43;;
11847;SDS011;5983;49.966;8.052;2022-11-04T03:42:30;1.07;;;0.37;;
11847;SDS011;5983;49.966;8.052;2022-11-04T03:45:01;0.63;;;0.40;;
11847;SDS011;5983;49.966;8.052;2022-11-04T03:47:30;2.47;;;0.60;;
11847;SDS011;5983;49.966;8.052;2022-11-04T03:49:59;2.67;;;0.77;;
11847;SDS011;5983;49.966;8.052;2022-11-04T03:52:34;1.10;;;0.60;;
11847;SDS011;5983;49.966;8.052;2022-11-04T03:55:01;1.13;;;0.60;;
11847;SDS011;5983;49.966;8.052;2022-11-04T03:57:33;4.70;;;1.87;;
11847;SDS011;5983;49.966;8.052;2022-11-04T04:00:11;2.17;;;1.00;;
11847;SDS011;5983;49.966;8.052;2022-11-04T04:05:31;3.37;;;0.90;;
11847;SDS011;5983;49.966;8.052;2022-11-04T04:08:12;1.70;;;0.87;;
11847;SDS011;5983;49.966;8.052;2022-11-04T04:10:54;3.80;;;0.80;;
11847;SDS011;5983;49.966;8.052;2022-11-04T04:13:33;3.13;;;0.83;;
11847;SDS011;5983;49.966;8.052;2022-11-04T04:16:07;2.27;;;0.90;;
11847;SDS011;5983;49.966;8.052;2022-11-04T04:18:43;2.60;;;1.10;;
11847;SDS011;5983;49.966;8.052;2022-11-04T04:21:19;1.53;;;1.23;;
11847;SDS011;5983;49.966;8.052;2022-11-04T04:23:53;7.27;;;1.60;;
11847;SDS011;5983;49.966;8.052;2022-11-04T04:26:42;2.90;;;1.27;;
11847;SDS011;5983;49.966;8.052;2022-11-04T04:29:30;7.93;;;0.97;;
11847;SDS011;5983;49.966;8.052;2022-11-04T04:31:58;2.07;;;0.70;;
11847;SDS011;5983;49.966;8.052;2022-11-04T04:34:31;1.10;;;0.80;;
11847;SDS011;5983;49.966;8.052;2022-11-04T04:37:00;3.17;;;1.20;;
11847;SDS011;5983;49.966;8.052;2022-11-04T04:39:34;0.93;;;0.80;;
11847;SDS011;5983;49.966;8.052;2022-11-04T04:42:25;1.43;;;0.90;;
11847;SDS011;5983;49.966;8.052;2022-11-04T04:45:18;1.30;;;0.73;;
11847;SDS011;5983;49.966;8.052;2022-11-04T04:47:48;0.90;;;0.80;;
11847;SDS011;5983;49.966;8.052;2022-11-04T04:50:18;3.03;;;1.10;;
11847;SDS011;5983;49.966;8.052;2022-11-04T04:52:50;4.23;;;1.10;;
11847;SDS011;5983;49.966;8.052;2022-11-04T04:55:21;6.17;;;0.97;;
11847;SDS011;5983;49.966;8.052;2022-11-04T04:57:48;2.27;;;0.90;;
11847;SDS011;5983;49.966;8.052;2022-11-04T05:00:16;3.67;;;1.00;;
11847;SDS011;5983;49.966;8.052;2022-11-04T05:02:46;1.23;;;0.73;;
11847;SDS011;5983;49.966;8.052;2022-11-04T05:05:14;3.27;;;0.93;;
11847;SDS011;5983;49.966;8.052;2022-11-04T05:07:43;1.40;;;0.90;;
11847;SDS011;5983;49.966;8.052;2022-11-04T05:10:11;1.67;;;0.73;;
11847;SDS011;5983;49.966;8.052;2022-11-04T05:12:40;2.40;;;0.90;;
11847;SDS011;5983;49.966;8.052;2022-11-04T05:15:25;2.73;;;0.77;;
11847;SDS011;5983;49.966;8.052;2022-11-04T05:17:53;2.10;;;0.80;;
11847;SDS011;5983;49.966;8.052;2022-11-04T05:20:22;2.53;;;0.80;;
11847;SDS011;5983;49.966;8.052;2022-11-04T05:22:51;2.10;;;0.80;;
11847;SDS011;5983;49.966;8.052;2022-11-04T05:25:20;2.43;;;0.57;;
11847;SDS011;5983;49.966;8.052;2022-11-04T05:27:47;1.30;;;0.73;;
11847;SDS011;5983;49.966;8.052;2022-11-04T05:30:14;3.60;;;0.73;;
11847;SDS011;5983;49.966;8.052;2022-11-04T05:32:41;1.27;;;0.70;;
11847;SDS011;5983;49.966;8.052;2022-11-04T05:35:08;4.30;;;0.60;;
11847;SDS011;5983;49.966;8.052;2022-11-04T05:37:35;0.93;;;0.53;;
11847;SDS011;5983;49.966;8.052;2022-11-04T05:40:06;3.33;;;1.10;;
11847;SDS011;5983;49.966;8.052;2022-11-04T05:42:34;6.67;;;1.03;;
11847;SDS011;5983;49.966;8.052;2022-11-04T05:45:01;3.37;;;0.80;;
11847;SDS011;5983;49.966;8.052;2022-11-04T05:47:29;1.03;;;0.60;;
11847;SDS011;5983;49.966;8.052;2022-11-04T05:49:56;5.10;;;0.83;;
11847;SDS011;5983;49.966;8.052;2022-11-04T05:52:23;3.63;;;0.63;;
11847;SDS011;5983;49.966;8.052;2022-11-04T05:54:50;2.27;;;0.63;;
11847;SDS011;5983;49.966;8.052;2022-11-04T05:57:19;3.33;;;0.70;;
11847;SDS011;5983;49.966;8.052;2022-11-04T05:59:46;1.00;;;0.63;;
11847;SDS011;5983;49.966;8.052;2022-11-04T06:02:13;1.30;;;0.50;;
11847;SDS011;5983;49.966;8.052;2022-11-04T06:04:40;1.53;;;0.80;;
11847;SDS011;5983;49.966;8.052;2022-11-04T06:07:07;1.07;;;0.60;;
11847;SDS011;5983;49.966;8.052;2022-11-04T06:09:36;2.53;;;0.70;;
11847;SDS011;5983;49.966;8.052;2022-11-04T06:12:06;2.23;;;0.97;;
11847;SDS011;5983;49.966;8.052;2022-11-04T06:14:37;2.03;;;0.73;;
11847;SDS011;5983;49.966;8.052;2022-11-04T06:17:07;4.23;;;0.73;;
11847;SDS011;5983;49.966;8.052;2022-11-04T06:19:38;2.43;;;0.90;;
11847;SDS011;5983;49.966;8.052;2022-11-04T06:22:05;3.83;;;0.90;;
11847;SDS011;5983;49.966;8.052;2022-11-04T06:24:33;2.93;;;0.80;;
11847;SDS011;5983;49.966;8.052;2022-11-04T06:27:00;3.03;;;0.90;;
11847;SDS011;5983;49.966;8.052;2022-11-04T06:29:27;2.80;;;0.90;;
11847;SDS011;5983;49.966;8.052;2022-11-04T06:31:56;2.80;;;1.20;;
11847;SDS011;5983;49.966;8.052;2022-11-04T06:34:23;3.00;;;1.07;;
11847;SDS011;5983;49.966;8.052;2022-11-04T06:36:50;4.27;;;1.10;;
11847;SDS011;5983;49.966;8.052;2022-11-04T06:39:17;3.03;;;1.10;;
11847;SDS011;5983;49.966;8.052;2022-11-04T06:41:44;2.93;;;1.17;;
11847;SDS011;5983;49.966;8.052;2022-11-04T06:44:11;2.40;;;1.03;;
11847;SDS011;5983;49.966;8.052;2022-11-04T06:46:38;5.03;;;1.57;;
11847;SDS011;5983;49.966;8.052;2022-11-04T06:49:10;3.30;;;2.07;;
11847;SDS011;5983;49.966;8.052;2022-11-04T06:51:39;5.50;;;2.40;;
11847;SDS011;5983;49.966;8.052;2022-11-04T06:54:06;4.50;;;1.87;;
11847;SDS011;5983;49.966;8.052;2022-11-04T06:56:33;1.60;;;1.50;;
11847;SDS011;5983;49.966;8.052;2022-11-04T06:59:00;2.43;;;1.23;;
11847;SDS011;5983;49.966;8.052;2022-11-04T07:01:28;1.67;;;1.33;;
11847;SDS011;5983;49.966;8.052;2022-11-04T07:03:58;2.70;;;1.60;;
11847;SDS011;5983;49.966;8.052;2022-11-04T07:06:27;2.50;;;1.27;;
11847;SDS011;5983;49.966;8.052;2022-11-04T07:08:55;3.33;;;1.50;;
11847;SDS011;5983;49.966;8.052;2022-11-04T07:11:25;3.70;;;1.33;;
11847;SDS011;5983;49.966;8.052;2022-11-04T07:13:56;5.03;;;1.73;;
11847;SDS011;5983;49.966;8.052;2022-11-04T07:16:23;2.50;;;1.30;;
11847;SDS011;5983;49.966;8.052;2022-11-04T07:18:50;2.97;;;1.40;;
11847;SDS011;5983;49.966;8.052;2022-11-04T07:21:19;4.10;;;1.63;;
11847;SDS011;5983;49.966;8.052;2022-11-04T07:23:47;2.43;;;1.47;;
11847;SDS011;5983;49.966;8.052;2022-11-04T07:26:14;5.63;;;1.40;;
11847;SDS011;5983;49.966;8.052;2022-11-04T07:28:41;2.43;;;1.13;;
11847;SDS011;5983;49.966;8.052;2022-11-04T07:31:09;3.57;;;1.40;;
11847;SDS011;5983;49.966;8.052;2022-11-04T07:33:38;1.27;;;0.97;;
11847;SDS011;5983;49.966;8.052;2022-11-04T07:36:06;2.37;;;1.37;;
11847;SDS011;5983;49.966;8.052;2022-11-04T07:38:37;2.80;;;1.37;;
11847;SDS011;5983;49.966;8.052;2022-11-04T07:41:05;2.50;;;1.40;;
11847;SDS011;5983;49.966;8.052;2022-11-04T07:43:32;3.70;;;1.73;;
11847;SDS011;5983;49.966;8.052;2022-11-04T07:46:00;3.30;;;2.00;;
11847;SDS011;5983;49.966;8.052;2022-11-04T07:48:29;3.23;;;2.23;;
11847;SDS011;5983;49.966;8.052;2022-11-04T07:50:57;3.00;;;1.70;;
11847;SDS011;5983;49.966;8.052;2022-11-04T07:53:25;6.63;;;2.60;;
11847;SDS011;5983;49.966;8.052;2022-11-04T07:55:53;3.30;;;2.13;;
11847;SDS011;5983;49.966;8.052;2022-11-04T07:58:22;3.03;;;1.70;;
11847;SDS011;5983;49.966;8.052;2022-11-04T08:00:49;3.33;;;2.30;;
11847;SDS011;5983;49.966;8.052;2022-11-04T08:03:17;5.30;;;2.17;;
11847;SDS011;5983;49.966;8.052;2022-11-04T08:05:43;3.70;;;2.50;;
11847;SDS011;5983;49.966;8.052;2022-11-04T08:08:10;4.20;;;2.70;;
11847;SDS011;5983;49.966;8.052;2022-11-04T08:10:37;3.43;;;2.17;;
11847;SDS011;5983;49.966;8.052;2022-11-04T08:13:04;4.00;;;2.93;;
11847;SDS011;5983;49.966;8.052;2022-11-04T08:15:34;3.57;;;2.67;;
11847;SDS011;5983;49.966;8.052;2022-11-04T08:18:01;4.10;;;2.60;;
11847;SDS011;5983;49.966;8.052;2022-11-04T08:20:29;2.60;;;2.30;;
11847;SDS011;5983;49.966;8.052;2022-11-04T08:22:56;5.57;;;2.93;;
11847;SDS011;5983;49.966;8.052;2022-11-04T08:25:23;6.30;;;2.77;;
11847;SDS011;5983;49.966;8.052;2022-11-04T08:27:50;3.83;;;2.87;;
11847;SDS011;5983;49.966;8.052;2022-11-04T08:30:16;4.13;;;3.00;;
11847;SDS011;5983;49.966;8.052;2022-11-04T08:32:45;8.73;;;4.97;;
11847;SDS011;5983;49.966;8.052;2022-11-04T08:35:12;11.60;;;6.10;;
11847;SDS011;5983;49.966;8.052;2022-11-04T08:37:39;20.77;;;10.03;;
11847;SDS011;5983;49.966;8.052;2022-11-04T08:40:06;14.43;;;7.20;;
11847;SDS011;5983;49.966;8.052;2022-11-04T08:42:35;11.20;;;4.23;;
11847;SDS011;5983;49.966;8.052;2022-11-04T08:45:02;5.87;;;2.93;;
11847;SDS011;5983;49.966;8.052;2022-11-04T08:47:29;5.33;;;3.03;;
11847;SDS011;5983;49.966;8.052;2022-11-04T08:49:57;4.70;;;2.63;;
11847;SDS011;5983;49.966;8.052;2022-11-04T08:52:24;5.20;;;2.20;;
11847;SDS011;5983;49.966;8.052;2022-11-04T08:54:52;4.23;;;2.10;;
11847;SDS011;5983;49.966;8.052;2022-11-04T08:57:20;4.07;;;1.80;;
11847;SDS011;5983;49.966;8.052;2022-11-04T08:59:46;3.53;;;1.87;;
11847;SDS011;5983;49.966;8.052;2022-11-04T09:02:13;2.50;;;1.77;;
11847;SDS011;5983;49.966;8.052;2022-11-04T09:04:41;5.33;;;2.00;;
11847;SDS011;5983;49.966;8.052;2022-11-04T09:07:09;2.43;;;1.80;;
11847;SDS011;5983;49.966;8.052;2022-11-04T09:09:36;6.83;;;1.73;;
11847;SDS011;5983;49.966;8.052;2022-11-04T09:12:07;2.67;;;1.60;;
11847;SDS011;5983;49.966;8.052;2022-11-04T09:14:35;4.80;;;1.70;;
11847;SDS011;5983;49.966;8.052;2022-11-04T09:17:02;3.70;;;1.70;;
11847;SDS011;5983;49.966;8.052;2022-11-04T09:19:29;2.30;;;1.70;;
11847;SDS011;5983;49.966;8.052;2022-11-04T09:21:56;3.63;;;2.30;;
11847;SDS011;5983;49.966;8.052;2022-11-04T09:24:24;4.63;;;1.93;;
11847;SDS011;5983;49.966;8.052;2022-11-04T09:26:51;2.37;;;1.57;;
11847;SDS011;5983;49.966;8.052;2022-11-04T09:29:18;3.30;;;1.60;;
11847;SDS011;5983;49.966;8.052;2022-11-04T09:31:45;3.60;;;1.57;;
11847;SDS011;5983;49.966;8.052;2022-11-04T09:34:14;6.03;;;1.63;;
11847;SDS011;5983;49.966;8.052;2022-11-04T09:36:42;3.13;;;1.40;;
11847;SDS011;5983;49.966;8.052;2022-11-04T09:39:09;2.33;;;1.60;;
11847;SDS011;5983;49.966;8.052;2022-11-04T09:41:45;6.10;;;1.90;;
11847;SDS011;5983;49.966;8.052;2022-11-04T09:44:37;3.23;;;1.77;;
11847;SDS011;5983;49.966;8.052;2022-11-04T09:47:14;5.27;;;1.93;;
11847;SDS011;5983;49.966;8.052;2022-11-04T09:49:43;3.80;;;1.67;;
11847;SDS011;5983;49.966;8.052;2022-11-04T09:52:14;2.30;;;1.10;;
11847;SDS011;5983;49.966;8.052;2022-11-04T09:54:49;2.07;;;1.20;;
11847;SDS011;5983;49.966;8.052;2022-11-04T09:57:26;2.57;;;1.03;;
11847;SDS011;5983;49.966;8.052;2022-11-04T09:59:53;1.90;;;1.20;;
11847;SDS011;5983;49.966;8.052;2022-11-04T10:02:24;7.70;;;1.50;;
11847;SDS011;5983;49.966;8.052;2022-11-04T10:05:08;2.87;;;1.37;;
11847;SDS011;5983;49.966;8.052;2022-11-04T10:07:59;3.57;;;1.00;;
11847;SDS011;5983;49.966;8.052;2022-11-04T10:10:57;3.23;;;1.20;;
11847;SDS011;5983;49.966;8.052;2022-11-04T10:13:36;1.70;;;1.10;;
11847;SDS011;5983;49.966;8.052;2022-11-04T10:16:28;3.80;;;1.13;;
11847;SDS011;5983;49.966;8.052;2022-11-04T10:19:19;3.60;;;1.03;;
11847;SDS011;5983;49.966;8.052;2022-11-04T10:22:03;3.30;;;0.90;;
11847;SDS011;5983;49.966;8.052;2022-11-04T10:24:40;4.50;;;0.73;;
11847;SDS011;5983;49.966;8.052;2022-11-04T10:27:16;2.43;;;0.70;;
11847;SDS011;5983;49.966;8.052;2022-11-04T10:29:53;3.80;;;1.20;;
11847;SDS011;5983;49.966;8.052;2022-11-04T10:32:27;3.70;;;1.47;;
11847;SDS011;5983;49.966;8.052;2022-11-04T10:35:01;2.60;;;1.30;;
11847;SDS011;5983;49.966;8.052;2022-11-04T10:37:44;3.33;;;1.40;;
11847;SDS011;5983;49.966;8.052;2022-11-04T10:40:16;4.63;;;1.30;;
11847;SDS011;5983;49.966;8.052;2022-11-04T10:42:50;2.70;;;1.10;;
11847;SDS011;5983;49.966;8.052;2022-11-04T10:45:20;2.63;;;0.97;;
11847;SDS011;5983;49.966;8.052;2022-11-04T10:47:56;3.60;;;1.00;;
11847;SDS011;5983;49.966;8.052;2022-11-04T10:50:32;2.10;;;0.83;;
11847;SDS011;5983;49.966;8.052;2022-11-04T10:53:10;4.40;;;0.83;;
11847;SDS011;5983;49.966;8.052;2022-11-04T10:55:40;3.43;;;1.40;;
11847;SDS011;5983;49.966;8.052;2022-11-04T10:58:17;6.10;;;1.27;;
11847;SDS011;5983;49.966;8.052;2022-11-04T11:00:50;4.37;;;1.40;;
11847;SDS011;5983;49.966;8.052;2022-11-04T11:03:22;3.73;;;1.10;;
11847;SDS011;5983;49.966;8.052;2022-11-04T11:06:14;2.20;;;1.07;;
11847;SDS011;5983;49.966;8.052;2022-11-04T11:08:50;3.53;;;1.40;;
11847;SDS011;5983;49.966;8.052;2022-11-04T11:11:33;3.03;;;0.80;;
11847;SDS011;5983;49.966;8.052;2022-11-04T11:14:15;4.90;;;0.93;;
11847;SDS011;5983;49.966;8.052;2022-11-04T11:16:46;8.67;;;1.43;;
11847;SDS011;5983;49.966;8.052;2022-11-04T11:19:14;3.13;;;1.13;;
11847;SDS011;5983;49.966;8.052;2022-11-04T11:21:45;6.27;;;1.03;;
11847;SDS011;5983;49.966;8.052;2022-11-04T11:24:16;7.67;;;3.60;;
11847;SDS011;5983;49.966;8.052;2022-11-04T11:26:48;5.03;;;2.13;;
11847;SDS011;5983;49.966;8.052;2022-11-04T11:29:19;11.17;;;6.93;;
11847;SDS011;5983;49.966;8.052;2022-11-04T11:31:53;8.47;;;1.97;;
11847;SDS011;5983;49.966;8.052;2022-11-04T11:34:25;4.23;;;1.07;;
11847;SDS011;5983;49.966;8.052;2022-11-04T11:36:57;2.30;;;0.80;;
11847;SDS011;5983;49.966;8.052;2022-11-04T11:39:27;3.73;;;0.90;;
11847;SDS011;5983;49.966;8.052;2022-11-04T11:41:57;2.63;;;0.77;;
11847;SDS011;5983;49.966;8.052;2022-11-04T11:44:31;2.57;;;0.70;;
11847;SDS011;5983;49.966;8.052;2022-11-04T11:47:06;2.50;;;0.60;;
11847;SDS011;5983;49.966;8.052;2022-11-04T11:49:44;2.47;;;0.90;;
11847;SDS011;5983;49.966;8.052;2022-11-04T11:52:23;2.43;;;0.70;;
11847;SDS011;5983;49.966;8.052;2022-11-04T11:55:00;1.77;;;0.33;;
11847;SDS011;5983;49.966;8.052;2022-11-04T11:57:38;1.40;;;0.60;;
11847;SDS011;5983;49.966;8.052;2022-11-04T12:00:15;2.80;;;0.63;;
11847;SDS011;5983;49.966;8.052;2022-11-04T12:02:48;2.93;;;0.67;;
11847;SDS011;5983;49.966;8.052;2022-11-04T12:05:22;4.23;;;2.30;;
11847;SDS011;5983;49.966;8.052;2022-11-04T12:08:02;5.17;;;2.40;;
11847;SDS011;5983;49.966;8.052;2022-11-04T12:10:44;3.97;;;1.60;;
11847;SDS011;5983;49.966;8.052;2022-11-04T12:13:19;2.20;;;1.13;;
11847;SDS011;5983;49.966;8.052;2022-11-04T12:16:07;3.43;;;1.07;;
11847;SDS011;5983;49.966;8.052;2022-11-04T12:18:56;3.53;;;0.43;;
11847;SDS011;5983;49.966;8.052;2022-11-04T12:21:53;2.53;;;0.80;;
11847;SDS011;5983;49.966;8.052;2022-11-04T12:24:29;2.23;;;0.70;;
11847;SDS011;5983;49.966;8.052;2022-11-04T12:27:11;5.17;;;0.90;;
11847;SDS011;5983;49.966;8.052;2022-11-04T12:29:49;3.43;;;0.87;;
11847;SDS011;5983;49.966;8.052;2022-11-04T12:32:33;2.00;;;0.90;;
11847;SDS011;5983;49.966;8.052;2022-11-04T12:35:20;3.07;;;1.20;;
11847;SDS011;5983;49.966;8.052;2022-11-04T12:38:24;2.90;;;0.50;;
11847;SDS011;5983;49.966;8.052;2022-11-04T12:41:26;6.70;;;0.93;;
11847;SDS011;5983;49.966;8.052;2022-11-04T12:44:07;3.27;;;0.50;;
11847;SDS011;5983;49.966;8.052;2022-11-04T12:46:46;0.63;;;0.40;;
11847;SDS011;5983;49.966;8.052;2022-11-04T12:49:29;1.43;;;0.70;;
11847;SDS011;5983;49.966;8.052;2022-11-04T12:52:52;0.77;;;0.50;;
11847;SDS011;5983;49.966;8.052;2022-11-04T12:55:42;1.73;;;0.70;;
11847;SDS011;5983;49.966;8.052;2022-11-04T12:58:22;1.70;;;0.67;;
11847;SDS011;5983;49.966;8.052;2022-11-04T13:01:04;2.13;;;0.90;;
11847;SDS011;5983;49.966;8.052;2022-11-04T13:03:39;2.97;;;0.70;;
11847;SDS011;5983;49.966;8.052;2022-11-04T13:06:15;2.63;;;0.80;;
11847;SDS011;5983;49.966;8.052;2022-11-04T13:08:51;1.23;;;0.70;;
11847;SDS011;5983;49.966;8.052;2022-11-04T13:11:27;2.00;;;0.60;;
11847;SDS011;5983;49.966;8.052;2022-11-04T13:14:03;2.20;;;0.63;;
11847;SDS011;5983;49.966;8.052;2022-11-04T13:16:35;2.77;;;1.03;;
11847;SDS011;5983;49.966;8.052;2022-11-04T13:19:09;1.63;;;0.80;;
11847;SDS011;5983;49.966;8.052;2022-11-04T13:21:49;1.40;;;0.40;;
11847;SDS011;5983;49.966;8.052;2022-11-04T13:24:21;1.10;;;0.70;;
11847;SDS011;5983;49.966;8.052;2022-11-04T13:26:54;0.83;;;0.50;;
11847;SDS011;5983;49.966;8.052;2022-11-04T13:29:29;2.23;;;0.47;;
11847;SDS011;5983;49.966;8.052;2022-11-04T13:32:00;2.57;;;0.70;;
11847;SDS011;5983;49.966;8.052;2022-11-04T13:34:37;2.27;;;0.60;;
11847;SDS011;5983;49.966;8.052;2022-11-04T13:37:17;1.57;;;0.80;;
11847;SDS011;5983;49.966;8.052;2022-11-04T13:39:53;1.70;;;0.87;;
11847;SDS011;5983;49.966;8.052;2022-11-04T13:42:32;8.07;;;3.57;;
11847;SDS011;5983;49.966;8.052;2022-11-04T13:45:44;3.80;;;1.40;;
11847;SDS011;5983;49.966;8.052;2022-11-04T13:48:17;2.70;;;0.70;;
11847;SDS011;5983;49.966;8.052;2022-11-04T13:50:53;1.00;;;0.50;;
11847;SDS011;5983;49.966;8.052;2022-11-04T13:53:42;3.67;;;1.57;;
11847;SDS011;5983;49.966;8.052;2022-11-04T13:56:26;6.97;;;3.60;;
11847;SDS011;5983;49.966;8.052;2022-11-04T13:58:57;3.47;;;1.77;;
11847;SDS011;5983;49.966;8.052;2022-11-04T14:01:30;20.27;;;9.90;;
11847;SDS011;5983;49.966;8.052;2022-11-04T14:04:01;33.53;;;16.63;;
11847;SDS011;5983;49.966;8.052;2022-11-04T14:06:46;12.07;;;6.70;;
11847;SDS011;5983;49.966;8.052;2022-11-04T14:09:23;10.17;;;4.40;;
11847;SDS011;5983;49.966;8.052;2022-11-04T14:12:22;4.67;;;2.30;;
11847;SDS011;5983;49.966;8.052;2022-11-04T14:15:02;1.83;;;1.00;;
11847;SDS011;5983;49.966;8.052;2022-11-04T14:20:32;2.47;;;0.83;;
11847;SDS011;5983;49.966;8.052;2022-11-04T14:23:02;1.97;;;1.13;;
11847;SDS011;5983;49.966;8.052;2022-11-04T14:25:33;2.60;;;1.30;;
11847;SDS011;5983;49.966;8.052;2022-11-04T14:28:18;1.17;;;0.77;;
11847;SDS011;5983;49.966;8.052;2022-11-04T14:30:54;2.00;;;0.63;;
11847;SDS011;5983;49.966;8.052;2022-11-04T14:33:39;1.23;;;0.50;;
11847;SDS011;5983;49.966;8.052;2022-11-04T14:36:22;0.80;;;0.47;;
11847;SDS011;5983;49.966;8.052;2022-11-04T14:39:02;1.47;;;0.40;;
11847;SDS011;5983;49.966;8.052;2022-11-04T14:41:55;4.73;;;0.43;;
11847;SDS011;5983;49.966;8.052;2022-11-04T14:44:29;2.77;;;0.77;;
11847;SDS011;5983;49.966;8.052;2022-11-04T14:47:01;2.07;;;0.40;;
11847;SDS011;5983;49.966;8.052;2022-11-04T14:49:42;1.87;;;0.53;;
11847;SDS011;5983;49.966;8.052;2022-11-04T14:52:14;0.80;;;0.60;;
11847;SDS011;5983;49.966;8.052;2022-11-04T14:54:50;1.00;;;0.50;;
11847;SDS011;5983;49.966;8.052;2022-11-04T14:57:22;2.80;;;0.53;;
11847;SDS011;5983;49.966;8.052;2022-11-04T14:59:51;2.73;;;0.60;;
11847;SDS011;5983;49.966;8.052;2022-11-04T15:02:19;1.87;;;0.50;;
11847;SDS011;5983;49.966;8.052;2022-11-04T15:04:50;1.60;;;0.60;;
11847;SDS011;5983;49.966;8.052;2022-11-04T15:07:31;1.80;;;0.83;;
11847;SDS011;5983;49.966;8.052;2022-11-04T15:09:59;0.73;;;0.40;;
11847;SDS011;5983;49.966;8.052;2022-11-04T15:12:30;1.87;;;0.67;;
11847;SDS011;5983;49.966;8.052;2022-11-04T15:15:33;0.67;;;0.40;;
11847;SDS011;5983;49.966;8.052;2022-11-04T15:18:05;2.00;;;0.60;;
11847;SDS011;5983;49.966;8.052;2022-11-04T15:20:36;2.30;;;1.00;;
11847;SDS011;5983;49.966;8.052;2022-11-04T15:23:11;2.13;;;0.50;;
11847;SDS011;5983;49.966;8.052;2022-11-04T15:25:43;1.93;;;0.63;;
11847;SDS011;5983;49.966;8.052;2022-11-04T15:28:17;4.27;;;0.80;;
11847;SDS011;5983;49.966;8.052;2022-11-04T15:31:06;4.20;;;2.10;;
11847;SDS011;5983;49.966;8.052;2022-11-04T15:33:42;3.30;;;1.93;;
11847;SDS011;5983;49.966;8.052;2022-11-04T15:36:12;2.23;;;1.17;;
11847;SDS011;5983;49.966;8.052;2022-11-04T15:38:44;1.90;;;0.97;;
11847;SDS011;5983;49.966;8.052;2022-11-04T15:41:17;2.07;;;0.80;;
11847;SDS011;5983;49.966;8.052;2022-11-04T15:44:06;0.97;;;0.77;;
11847;SDS011;5983;49.966;8.052;2022-11-04T15:46:50;2.97;;;1.10;;
11847;SDS011;5983;49.966;8.052;2022-11-04T15:49:21;3.57;;;1.43;;
11847;SDS011;5983;49.966;8.052;2022-11-04T15:51:51;6.47;;;1.03;;